createdAt,value
2019-03-06T00:01:37.386Z,76.81
2019-03-06T00:04:05.813Z,76.58
2019-03-06T00:06:53.300Z,76.59
2019-03-06T00:09:21.709Z,76.63
2019-03-06T00:11:50.103Z,76.59
2019-03-06T00:14:18.513Z,76.28
2019-03-06T00:16:46.906Z,76.47
2019-03-06T00:19:34.560Z,76.15
2019-03-06T00:22:02.954Z,76.76
2019-03-06T00:24:31.363Z,77.45
2019-03-06T00:26:59.765Z,77.22
2019-03-06T00:29:28.172Z,77.24
2019-03-06T00:31:56.576Z,77.51
2019-03-06T00:36:59.448Z,77.35
2019-03-06T00:42:27.600Z,77.91
2019-03-06T00:45:15.125Z,77.96
2019-03-06T00:48:02.860Z,77.63
2019-03-06T00:50:31.274Z,77.89
2019-03-06T00:53:01.393Z,78.13
2019-03-06T00:55:29.795Z,77.93
2019-03-06T00:57:58.189Z,78.71
2019-03-06T01:01:06.512Z,78.53
2019-03-06T01:03:34.918Z,78.50
2019-03-06T01:06:22.446Z,78.49
2019-03-06T01:08:50.921Z,78.57
2019-03-06T01:11:38.743Z,78.68
2019-03-06T01:16:54.593Z,78.00
2019-03-06T01:19:23.001Z,78.02
2019-03-06T01:21:51.395Z,78.57
2019-03-06T01:24:19.803Z,78.42
2019-03-06T01:26:49.933Z,78.33
2019-03-06T01:29:18.316Z,78.52
2019-03-06T01:32:05.970Z,78.59
2019-03-06T01:34:53.494Z,78.73
2019-03-06T01:40:30.099Z,78.92
2019-03-06T01:43:17.848Z,78.90
2019-03-06T01:45:46.260Z,78.94
2019-03-06T01:48:16.379Z,79.20
2019-03-06T01:51:04.044Z,79.51
2019-03-06T01:53:51.556Z,79.43
2019-03-06T01:56:39.079Z,79.18
2019-03-06T01:59:07.479Z,79.09
2019-03-06T02:01:55.228Z,78.78
2019-03-06T02:04:23.641Z,78.75
2019-03-06T02:07:11.150Z,78.28
2019-03-06T02:09:58.864Z,78.20
2019-03-06T02:12:46.607Z,78.71
2019-03-06T02:15:54.925Z,79.10
2019-03-06T02:18:42.568Z,79.76
2019-03-06T02:21:50.876Z,80.38
2019-03-06T02:24:20.987Z,80.80
2019-03-06T02:27:08.639Z,80.37
2019-03-06T02:32:24.490Z,82.75
2019-03-06T02:37:40.331Z,83.63
2019-03-06T02:40:50.373Z,83.85
2019-03-06T02:43:19.007Z,84.65
2019-03-06T02:48:40.251Z,85.29
2019-03-06T02:51:28.144Z,85.76
2019-03-06T02:53:56.539Z,86.05
2019-03-06T02:56:44.439Z,86.56
2019-03-06T03:05:15.745Z,86.40
2019-03-06T03:10:18.143Z,85.71
2019-03-06T03:13:05.803Z,85.44
2019-03-06T03:18:21.647Z,85.13
2019-03-06T03:20:50.040Z,84.88
2019-03-06T03:23:37.697Z,85.08
2019-03-06T03:28:53.538Z,85.27
2019-03-06T03:31:21.944Z,85.19
2019-03-06T03:34:09.464Z,85.34
2019-03-06T03:36:57.122Z,86.14
2019-03-06T03:39:25.520Z,86.35
2019-03-06T03:41:53.913Z,86.49
2019-03-06T03:44:41.437Z,86.68
2019-03-06T03:47:28.956Z,86.55
2019-03-06T03:50:16.697Z,86.24
2019-03-06T03:55:59.480Z,85.92
2019-03-06T03:58:27.897Z,85.65
2019-03-06T04:00:56.368Z,86.00
2019-03-06T04:06:19.684Z,86.30
2019-03-06T04:09:07.445Z,86.27
2019-03-06T04:11:35.842Z,85.87
2019-03-06T04:16:58.653Z,85.04
2019-03-06T04:19:46.393Z,84.63
2019-03-06T04:22:14.797Z,83.93
2019-03-06T04:24:43.194Z,83.47
2019-03-06T04:27:30.840Z,83.89
2019-03-06T04:29:59.232Z,84.21
2019-03-06T04:32:27.634Z,84.74
2019-03-06T04:35:15.153Z,85.50
2019-03-06T04:37:43.586Z,85.90
2019-03-06T04:40:31.292Z,85.88
2019-03-06T04:45:33.577Z,85.94
2019-03-06T04:48:01.984Z,86.09
2019-03-06T04:50:30.371Z,85.64
2019-03-06T04:55:33.004Z,85.67
2019-03-06T04:58:01.417Z,86.02
2019-03-06T05:00:49.366Z,86.08
2019-03-06T05:03:18.037Z,86.10
2019-03-06T05:06:05.666Z,86.04
2019-03-06T05:08:35.790Z,86.22
2019-03-06T05:11:04.177Z,86.23
2019-03-06T05:13:51.825Z,86.01
2019-03-06T05:16:58.595Z,85.67
2019-03-06T05:19:26.994Z,85.32
2019-03-06T05:22:14.635Z,85.80
2019-03-06T05:24:43.065Z,86.31
2019-03-06T05:27:30.780Z,86.44
2019-03-06T05:30:20.024Z,86.20
2019-03-06T05:33:28.735Z,85.60
2019-03-06T05:36:37.109Z,85.94
2019-03-06T05:39:45.437Z,86.06
2019-03-06T05:42:32.961Z,85.70
2019-03-06T05:45:20.641Z,85.24
2019-03-06T05:47:49.050Z,85.51
2019-03-06T05:50:20.357Z,85.84
2019-03-06T05:52:49.317Z,86.31
2019-03-06T05:55:36.858Z,86.11
2019-03-06T06:01:00.443Z,85.50
2019-03-06T06:03:28.874Z,85.67
2019-03-06T06:06:16.650Z,85.19
2019-03-06T06:08:45.071Z,85.23
2019-03-06T06:14:00.930Z,85.39
2019-03-06T06:16:48.628Z,85.38
2019-03-06T06:19:17.046Z,85.54
2019-03-06T06:22:04.570Z,85.59
2019-03-06T06:24:33.015Z,86.19
2019-03-06T06:27:01.417Z,86.17
2019-03-06T06:29:49.218Z,86.27
2019-03-06T06:32:17.630Z,86.72
2019-03-06T06:34:46.073Z,86.75
2019-03-06T06:37:33.714Z,87.64
2019-03-06T06:40:21.366Z,88.57
2019-03-06T06:43:09.007Z,88.78
2019-03-06T06:45:56.658Z,89.11
2019-03-06T06:49:04.965Z,89.29
2019-03-06T06:52:11.950Z,90.05
2019-03-06T06:55:20.275Z,90.59
2019-03-06T06:58:31.388Z,91.15
2019-03-06T07:01:37.332Z,91.45
2019-03-06T07:05:03.447Z,91.15
2019-03-06T07:07:50.960Z,90.75
2019-03-06T07:10:38.662Z,91.14
2019-03-06T07:16:34.583Z,91.82
2019-03-06T07:19:22.114Z,92.29
2019-03-06T07:22:28.877Z,92.67
2019-03-06T07:25:16.401Z,92.03
2019-03-06T07:30:52.998Z,91.90
2019-03-06T07:33:40.514Z,91.78
2019-03-06T07:41:42.582Z,92.36
2019-03-06T07:47:19.174Z,91.88
2019-03-06T07:50:27.487Z,92.30
2019-03-06T07:53:37.832Z,92.53
2019-03-06T07:56:25.355Z,92.38
2019-03-06T07:59:33.660Z,92.48
2019-03-06T08:02:42.031Z,92.57
2019-03-06T08:05:50.347Z,92.95
2019-03-06T08:08:18.747Z,92.54
2019-03-06T08:10:47.157Z,92.34
2019-03-06T08:13:34.674Z,92.60
2019-03-06T08:19:16.585Z,92.37
2019-03-06T08:22:24.896Z,91.73
2019-03-06T08:27:42.675Z,91.81
2019-03-06T08:30:50.996Z,91.76
2019-03-06T08:36:06.836Z,91.35
2019-03-06T08:38:54.474Z,91.19
2019-03-06T08:41:22.879Z,90.60
2019-03-06T08:44:10.618Z,90.04
2019-03-06T08:46:58.140Z,89.74
2019-03-06T08:52:54.072Z,88.85
2019-03-06T08:56:00.848Z,88.53
2019-03-06T08:58:48.366Z,88.63
2019-03-06T09:02:00.516Z,88.43
2019-03-06T09:04:45.928Z,88.44
2019-03-06T09:07:33.694Z,88.12
2019-03-06T09:15:49.195Z,87.43
2019-03-06T09:24:10.717Z,86.21
2019-03-06T09:27:19.028Z,85.83
2019-03-06T09:30:13.246Z,84.98
2019-03-06T09:32:55.784Z,83.43
2019-03-06T09:35:43.294Z,83.13
2019-03-06T09:38:30.826Z,82.35
2019-03-06T09:41:18.507Z,81.04
2019-03-06T09:44:26.825Z,80.83
2019-03-06T09:47:14.347Z,81.46
2019-03-06T09:50:22.651Z,79.06
2019-03-06T09:53:10.170Z,79.39
2019-03-06T09:55:57.961Z,78.68
2019-03-06T10:01:40.491Z,78.11
2019-03-06T10:04:28.014Z,78.09
2019-03-06T10:07:15.717Z,77.67
2019-03-06T10:10:22.484Z,76.19
2019-03-06T10:16:04.679Z,76.67
2019-03-06T10:19:11.703Z,77.08
2019-03-06T10:21:59.373Z,77.21
2019-03-06T10:24:27.759Z,76.93
2019-03-06T10:27:15.276Z,77.02
2019-03-06T10:29:43.686Z,77.65
2019-03-06T10:40:49.608Z,75.58
2019-03-06T10:43:37.131Z,75.10
2019-03-06T10:48:53.353Z,73.77
2019-03-06T10:51:41.247Z,73.59
2019-03-06T10:54:09.657Z,73.91
2019-03-06T10:59:25.502Z,70.56
2019-03-06T11:02:13.017Z,70.38
2019-03-06T11:05:21.607Z,70.93
2019-03-06T11:08:29.991Z,70.92
2019-03-06T11:10:58.526Z,70.68
2019-03-06T11:13:26.923Z,69.52
2019-03-06T11:15:56.092Z,68.93
2019-03-06T11:19:05.366Z,69.56
2019-03-06T11:25:01.013Z,70.04
2019-03-06T11:27:29.411Z,71.09
2019-03-06T11:30:17.094Z,72.29
2019-03-06T11:33:04.733Z,70.97
2019-03-06T11:39:07.431Z,70.77
2019-03-06T11:42:17.455Z,70.39
2019-03-06T11:47:20.147Z,70.27
2019-03-06T11:49:48.555Z,70.52
2019-03-06T11:52:16.954Z,70.38
2019-03-06T11:55:06.275Z,70.07
2019-03-06T12:01:02.473Z,70.14
2019-03-06T12:03:50.190Z,68.67
2019-03-06T12:06:18.597Z,68.88
2019-03-06T12:12:14.418Z,68.45
2019-03-06T12:15:02.066Z,67.98
2019-03-06T12:20:17.903Z,68.88
2019-03-06T12:22:46.293Z,69.41
2019-03-06T12:25:54.608Z,69.65
2019-03-06T12:31:50.316Z,69.72
2019-03-06T12:37:26.779Z,69.86
2019-03-06T12:40:14.890Z,68.95
2019-03-06T12:48:25.603Z,69.15
2019-03-06T12:51:13.259Z,69.12
2019-03-06T12:53:41.658Z,68.85
2019-03-06T12:56:29.546Z,69.62
2019-03-06T12:58:57.940Z,69.31
2019-03-06T13:04:20.736Z,69.45
2019-03-06T13:07:08.515Z,69.01
2019-03-06T13:09:37.674Z,69.11
2019-03-06T13:14:40.925Z,68.79
2019-03-06T13:20:43.652Z,68.17
2019-03-06T13:23:12.046Z,69.38
2019-03-06T13:25:40.441Z,68.33
2019-03-06T13:28:10.563Z,68.79
2019-03-06T13:31:18.879Z,68.02
2019-03-06T13:34:06.392Z,68.37
2019-03-06T13:36:34.795Z,68.18
2019-03-06T13:42:30.504Z,67.85
2019-03-06T13:44:58.897Z,68.08
2019-03-06T13:47:46.541Z,67.93
2019-03-06T13:50:54.841Z,67.69
2019-03-06T13:53:24.967Z,68.12
2019-03-06T13:55:53.361Z,67.88
2019-03-06T13:58:21.768Z,67.71
2019-03-06T14:00:50.157Z,67.39
2019-03-06T14:03:18.564Z,67.09
2019-03-06T14:05:46.958Z,66.50
2019-03-06T14:10:49.551Z,66.68
2019-03-06T14:13:37.197Z,66.20
2019-03-06T14:19:13.741Z,66.44
2019-03-06T14:21:42.147Z,65.67
2019-03-06T14:24:29.650Z,65.55
2019-03-06T14:27:17.298Z,65.07
2019-03-06T14:32:53.775Z,64.85
2019-03-06T14:41:44.736Z,64.09
2019-03-06T14:44:13.144Z,64.58
2019-03-06T14:47:00.655Z,63.82
2019-03-06T14:52:23.505Z,62.77
2019-03-06T14:55:11.142Z,63.42
2019-03-06T14:57:58.795Z,63.24
2019-03-06T15:00:46.601Z,63.56
2019-03-06T15:03:14.998Z,63.03
2019-03-06T15:05:47.173Z,62.88
2019-03-06T15:08:32.759Z,63.15
2019-03-06T15:11:01.154Z,63.16
2019-03-06T15:13:29.567Z,62.37
2019-03-06T15:15:58.033Z,62.82
2019-03-06T15:21:00.354Z,62.92
2019-03-06T15:23:47.873Z,62.81
2019-03-06T15:26:16.267Z,62.82
2019-03-06T15:29:24.595Z,62.90
2019-03-06T15:32:32.982Z,64.21
2019-03-06T15:35:01.398Z,65.56
2019-03-06T15:37:29.783Z,64.87
2019-03-06T15:43:13.818Z,64.79
2019-03-06T15:45:42.211Z,64.71
2019-03-06T15:48:10.611Z,63.91
2019-03-06T15:53:47.070Z,63.59
2019-03-06T15:56:15.466Z,63.34
2019-03-06T16:01:57.533Z,63.98
2019-03-06T16:04:25.939Z,64.11
2019-03-06T16:07:13.458Z,64.10
2019-03-06T16:10:00.983Z,63.77
2019-03-06T16:12:29.369Z,64.48
2019-03-06T16:14:57.774Z,64.95
2019-03-06T16:18:06.083Z,65.06
2019-03-06T16:21:14.404Z,66.32
2019-03-06T16:23:42.810Z,67.37
2019-03-06T16:28:58.654Z,68.17
2019-03-06T16:31:46.169Z,68.64
2019-03-06T16:34:33.819Z,68.32
2019-03-06T16:37:03.947Z,68.47
2019-03-06T16:39:32.355Z,69.26
2019-03-06T16:42:00.749Z,69.64
2019-03-06T16:44:48.408Z,69.55
2019-03-06T16:47:56.714Z,71.60
2019-03-06T16:51:05.035Z,71.81
2019-03-06T16:53:33.423Z,72.37
2019-03-06T16:56:01.842Z,73.34
2019-03-06T16:59:10.158Z,72.72
2019-03-06T17:01:57.967Z,72.70
2019-03-06T17:04:28.103Z,74.23
2019-03-06T17:09:43.938Z,74.12
2019-03-06T17:12:12.341Z,73.89
2019-03-06T17:14:40.738Z,74.45
2019-03-06T17:20:57.113Z,75.76
2019-03-06T17:23:25.503Z,77.27
2019-03-06T17:26:13.315Z,77.03
2019-03-06T17:28:41.705Z,77.57
2019-03-06T17:31:10.112Z,77.63
2019-03-06T17:33:38.507Z,77.56
2019-03-06T17:36:26.023Z,77.58
2019-03-06T17:38:54.427Z,77.59
2019-03-06T17:43:56.850Z,78.90
2019-03-06T17:46:25.526Z,78.58
2019-03-06T17:48:53.921Z,78.97
2019-03-06T17:51:22.333Z,79.14
2019-03-06T17:53:50.717Z,79.59
2019-03-06T17:56:38.361Z,79.88
2019-03-06T18:01:54.200Z,81.15
2019-03-06T18:04:41.837Z,81.63
2019-03-06T18:07:10.239Z,81.90
2019-03-06T18:09:38.641Z,82.28
2019-03-06T18:15:01.972Z,82.54
2019-03-06T18:17:30.362Z,82.14
2019-03-06T18:20:18.022Z,82.11
2019-03-06T18:23:05.648Z,82.30
2019-03-06T18:25:34.056Z,82.42
2019-03-06T18:28:21.567Z,82.29
2019-03-06T18:31:09.082Z,82.45
2019-03-06T18:36:44.036Z,82.41
2019-03-06T18:39:31.546Z,82.55
2019-03-06T18:44:52.877Z,81.37
2019-03-06T18:47:21.281Z,81.17
2019-03-06T18:50:08.927Z,81.05
2019-03-06T18:52:37.326Z,80.42
2019-03-06T18:55:45.639Z,80.35
2019-03-06T19:01:01.476Z,79.16
2019-03-06T19:03:29.866Z,79.15
2019-03-06T19:06:20.820Z,78.67
2019-03-06T19:09:08.338Z,78.23
2019-03-06T19:11:36.733Z,78.41
2019-03-06T19:14:45.042Z,78.52
2019-03-06T19:20:06.920Z,78.33
2019-03-06T19:22:35.330Z,77.58
2019-03-06T19:25:43.651Z,77.09
2019-03-06T19:28:31.167Z,77.22
2019-03-06T19:31:18.821Z,76.78
2019-03-06T19:33:47.216Z,76.59
2019-03-06T19:36:34.867Z,76.04
2019-03-06T19:42:11.339Z,75.96
2019-03-06T19:44:58.987Z,76.30
2019-03-06T19:48:07.295Z,76.48
2019-03-06T19:50:54.949Z,76.57
2019-03-06T19:53:23.353Z,76.44
2019-03-06T19:55:51.755Z,76.46
2019-03-06T19:59:00.057Z,76.68
2019-03-06T20:01:47.579Z,76.80
2019-03-06T20:07:22.752Z,76.67
2019-03-06T20:10:31.063Z,76.82
2019-03-06T20:13:18.810Z,76.83
2019-03-06T20:18:34.647Z,76.69
2019-03-06T20:21:22.201Z,76.50
2019-03-06T20:24:10.078Z,76.81
2019-03-06T20:26:57.669Z,76.24
2019-03-06T20:29:45.315Z,75.36
2019-03-06T20:32:13.796Z,75.05
2019-03-06T20:34:42.184Z,74.86
2019-03-06T20:37:29.845Z,74.38
2019-03-06T20:40:17.366Z,73.70
2019-03-06T20:43:25.686Z,73.54
2019-03-06T20:46:13.197Z,72.27
2019-03-06T20:48:41.602Z,72.65
2019-03-06T20:51:09.995Z,72.77
2019-03-06T20:53:38.427Z,72.68
2019-03-06T20:56:06.883Z,71.47
2019-03-06T20:58:35.277Z,71.01
2019-03-06T21:01:04.044Z,71.04
2019-03-06T21:03:51.559Z,71.31
2019-03-06T21:06:19.953Z,70.72
2019-03-06T21:09:07.613Z,70.40
2019-03-06T21:11:36.408Z,69.77
2019-03-06T21:14:06.132Z,69.38
2019-03-06T21:16:34.534Z,69.17
2019-03-06T21:19:22.179Z,69.05
2019-03-06T21:21:50.585Z,68.91
2019-03-06T21:24:18.983Z,69.32
2019-03-06T21:26:47.375Z,69.13
2019-03-06T21:32:08.753Z,68.21
2019-03-06T21:37:24.589Z,67.92
2019-03-06T21:40:00.364Z,67.89
2019-03-06T21:42:28.797Z,67.42
2019-03-06T21:45:16.530Z,67.78
2019-03-06T21:48:04.189Z,67.46
2019-03-06T21:50:32.584Z,67.37
2019-03-06T21:53:20.247Z,67.99
2019-03-06T21:56:07.770Z,67.69
2019-03-06T21:58:36.169Z,67.07
2019-03-06T22:01:04.569Z,66.67
2019-03-06T22:03:34.686Z,67.38
2019-03-06T22:06:03.159Z,66.24
2019-03-06T22:11:05.154Z,66.48
2019-03-06T22:13:33.562Z,66.10
2019-03-06T22:16:01.954Z,65.96
2019-03-06T22:23:59.684Z,66.07
2019-03-06T22:26:29.804Z,66.21
2019-03-06T22:29:17.323Z,66.15
2019-03-06T22:32:05.060Z,65.70
2019-03-06T22:34:52.713Z,66.47
2019-03-06T22:37:21.104Z,65.48
2019-03-06T22:40:08.753Z,66.02
2019-03-06T22:42:56.268Z,65.03
2019-03-06T22:45:43.785Z,65.84
2019-03-06T22:48:12.179Z,65.47
2019-03-06T22:50:59.699Z,65.83
2019-03-06T22:54:08.011Z,66.14
2019-03-06T22:56:36.412Z,66.16
2019-03-06T22:59:23.930Z,66.04
2019-03-06T23:02:11.705Z,65.91
2019-03-06T23:04:59.357Z,66.12
2019-03-06T23:07:27.747Z,66.66
2019-03-06T23:09:57.870Z,66.15
2019-03-06T23:12:26.259Z,66.41
2019-03-06T23:15:13.781Z,66.37
2019-03-06T23:17:42.169Z,66.54
2019-03-06T23:20:29.895Z,65.91
2019-03-06T23:22:58.285Z,65.65
2019-03-06T23:25:45.810Z,66.41
2019-03-06T23:28:14.376Z,66.13
2019-03-06T23:31:02.029Z,66.22
2019-03-06T23:33:30.422Z,66.95
2019-03-06T23:36:18.077Z,66.98
2019-03-06T23:41:33.909Z,68.17
2019-03-06T23:44:21.418Z,67.78
2019-03-06T23:49:23.566Z,68.60
2019-03-06T23:54:46.605Z,68.85
2019-03-06T23:57:15.007Z,68.72
2019-03-06T23:59:43.405Z,69.50
